North Haverhill, NH

6:22 AM EST on January 29, 2015 (GMT -0500)
Mountain Lakes | Change Station
CLOSE
Current Station
Personal Weather Station
Location: Haverhill, NH
Elevation: 843 ft
Nearby Weather Stations
Active Advisory: Winter Weather Advisory Active Notice: Record Report

Elev 843 ft 44.12 °N, 71.96 °W | Updated 1 minute ago

Partly Cloudy
Partly Cloudy
-9.7 °F
Feels Like -10 °F
N
0.0
Wind Variable Wind from East
Gusts 0.0 mph

Today
High -- | Low -- °F
--% Chance of Precip.
Yesterday
High -- | Low -- °F
Precip. -- in
7:09 AM 4:53 PM
Waxing Gibbous, 73% visible
Pressure 30.28 in
Visibility 10.0 miles
Clouds Clear
Windchill -10 °F
Dew Point -13 °F
Humidity 84%
Rainfall 0.00 in
Snow Depth Not available.
UV 0 out of 12
Pollen .10 out of 12
Air Quality Not available.
Flu Activity Not available.
METAR K1P1 291115Z AUTO 00000KT 10SM CLR M16/M19 A3028 RMK AO2 T11621190

More Conditions Fewer Conditions

Pressure 30.28 in
Visibility 10.0 miles
Clouds Clear
Windchill -10 °F
Dew Point -13 °F
Humidity 84%
Rainfall 0.00 in
Snow Depth Not available.
UV 0 out of 12
Pollen .10 out of 12
Air Quality Not available.
Flu Activity Not available.
METAR K1P1 291115Z AUTO 00000KT 10SM CLR M16/M19 A3028 RMK AO2 T11621190

More Conditions Fewer Conditions

10-Day Weather Forecast

Almanac

Astronomy

Jan. 29, 2015 Rise Set
Actual Time
Civil Twilight
Nautical Twilight
Astronomical Twilight
Moon
Length of Visible Light
Length of Day
Tomorrow will be .
, % of the Moon is Illuminated

Today's Extremes

State Highs State Lows

Community

WunderPhotos

Upload Photos

1,791,406 photos uploaded!

WunderBlogs® & News

Nearby

Air Quality

  Air Quality AQ Index Pollutant
Not available.

Snow Depth

Station Depth Elevation

Earthquake Activity

City Distance Mag. Time & Date
Minimum magnitude displayed is 2.5.

Coastal Water Temperatures

Place Temperature

Nearby Weather Stations